createdAt,value
2023-04-09T00:01:29.871Z,102093.06
2023-04-09T00:03:56.403Z,102089.56
2023-04-09T00:06:22.963Z,102089.31
2023-04-09T00:08:49.590Z,102090.41
2023-04-09T00:11:16.161Z,102086.38
2023-04-09T00:13:42.577Z,102081.72
2023-04-09T00:16:09.238Z,102081.44
2023-04-09T00:18:36.168Z,102080.63
2023-04-09T00:21:02.666Z,102089.88
2023-04-09T00:23:29.195Z,102082.28
2023-04-09T00:25:55.627Z,102080.91
2023-04-09T00:28:22.064Z,102078.72
2023-04-09T00:30:48.528Z,102077.41
2023-04-09T00:33:14.946Z,102085.81
2023-04-09T00:35:41.410Z,102085.47
2023-04-09T00:38:07.875Z,102079.56
2023-04-09T00:40:34.291Z,102088.53
2023-04-09T00:43:01.060Z,102088.25
2023-04-09T00:45:27.655Z,102081.75
2023-04-09T00:47:54.516Z,102086.31
2023-04-09T00:50:21.483Z,102080.56
2023-04-09T00:52:47.995Z,102084.31
2023-04-09T00:55:15.341Z,102083.19
2023-04-09T00:57:41.834Z,102074.28
2023-04-09T01:00:09.740Z,102076.88
2023-04-09T01:02:36.584Z,102080.16
2023-04-09T01:05:03.611Z,102083.41
2023-04-09T01:07:54.278Z,102079.44
2023-04-09T01:10:43.741Z,102072.91
2023-04-09T01:13:33.248Z,102075.63
2023-04-09T01:16:02.375Z,102072.34
2023-04-09T01:18:42.416Z,102076.44
2023-04-09T01:21:14.855Z,102080.47
2023-04-09T01:24:21.141Z,102075.28
2023-04-09T01:27:07.209Z,102081.47
2023-04-09T01:29:46.434Z,102072.59
2023-04-09T01:32:16.560Z,102077.19
2023-04-09T01:34:46.529Z,102075.44
2023-04-09T01:37:15.071Z,102077.25
2023-04-09T01:39:42.104Z,102081.53
2023-04-09T01:42:12.204Z,102078.28
2023-04-09T01:44:41.062Z,102077.41
2023-04-09T01:47:09.135Z,102076.72
2023-04-09T01:49:36.290Z,102073.34
2023-04-09T01:52:03.235Z,102062.75
2023-04-09T01:54:29.689Z,102070.06
2023-04-09T01:56:58.175Z,102069.22
2023-04-09T01:59:24.662Z,102070.34
2023-04-09T02:02:05.709Z,102066.25
2023-04-09T02:04:43.746Z,102063.34
2023-04-09T02:07:25.842Z,102059.47
2023-04-09T02:09:54.380Z,102064.91
2023-04-09T02:12:21.748Z,102067.88
2023-04-09T02:14:51.611Z,102063.00
2023-04-09T02:17:18.668Z,102071.31
2023-04-09T02:19:47.629Z,102066.94
2023-04-09T02:22:15.313Z,102067.13
2023-04-09T02:24:41.804Z,102063.53
2023-04-09T02:27:08.828Z,102065.91
2023-04-09T02:29:35.301Z,102064.34
2023-04-09T02:32:01.850Z,102063.09
2023-04-09T02:34:28.362Z,102067.44
2023-04-09T02:36:54.915Z,102064.81
2023-04-09T02:39:21.405Z,102074.03
2023-04-09T02:41:47.806Z,102071.94
2023-04-09T02:44:14.249Z,102065.91
2023-04-09T02:46:41.811Z,102072.47
2023-04-09T02:49:08.293Z,102073.16
2023-04-09T02:51:37.672Z,102080.28
2023-04-09T02:54:04.312Z,102073.28
2023-04-09T02:56:30.781Z,102072.34
2023-04-09T02:58:57.222Z,102076.09
2023-04-09T03:01:23.699Z,102072.78
2023-04-09T03:03:50.400Z,102074.44
2023-04-09T03:06:18.358Z,102068.47
2023-04-09T03:08:44.861Z,102074.50
2023-04-09T03:11:11.303Z,102063.59
2023-04-09T03:13:37.806Z,102071.00
2023-04-09T03:16:04.636Z,102076.91
2023-04-09T03:18:31.311Z,102075.03
2023-04-09T03:20:57.836Z,102074.66
2023-04-09T03:23:24.264Z,102071.66
2023-04-09T03:26:00.321Z,102079.25
2023-04-09T03:28:26.757Z,102076.09
2023-04-09T03:30:53.289Z,102073.91
2023-04-09T03:33:19.886Z,102070.78
2023-04-09T03:35:46.360Z,102084.63
2023-04-09T03:38:12.809Z,102076.69
2023-04-09T03:40:39.272Z,102078.03
2023-04-09T03:43:05.676Z,102073.03
2023-04-09T03:45:32.093Z,102074.44
2023-04-09T03:47:58.543Z,102060.06
2023-04-09T03:50:24.958Z,102070.88
2023-04-09T03:52:51.422Z,102057.78
2023-04-09T03:55:17.860Z,102061.59
2023-04-09T03:57:44.246Z,102060.06
2023-04-09T04:00:11.301Z,102055.06
2023-04-09T04:02:38.128Z,102061.31
2023-04-09T04:05:04.956Z,102053.78
2023-04-09T04:07:32.773Z,102061.41
2023-04-09T04:09:59.230Z,102058.22
2023-04-09T04:12:25.742Z,102057.09
2023-04-09T04:14:52.122Z,102063.81
2023-04-09T04:17:18.572Z,102062.41
2023-04-09T04:19:45.178Z,102068.16
2023-04-09T04:22:11.675Z,102068.69
2023-04-09T04:24:38.098Z,102069.28
2023-04-09T04:27:04.581Z,102066.38
2023-04-09T04:29:31.000Z,102069.34
2023-04-09T04:31:57.541Z,102064.53
2023-04-09T04:34:24.217Z,102070.34
2023-04-09T04:36:50.825Z,102068.28
2023-04-09T04:39:17.364Z,102074.03
2023-04-09T04:41:43.757Z,102076.16
2023-04-09T04:44:10.180Z,102075.78
2023-04-09T04:46:36.632Z,102083.13
2023-04-09T04:49:03.055Z,102072.00
2023-04-09T04:51:31.845Z,102077.63
2023-04-09T04:53:58.250Z,102071.34
2023-04-09T04:56:24.667Z,102077.03
2023-04-09T04:58:51.348Z,102069.50
2023-04-09T05:01:18.117Z,102080.69
2023-04-09T05:03:44.644Z,102070.56
2023-04-09T05:06:11.083Z,102075.94
2023-04-09T05:08:37.536Z,102079.72
2023-04-09T05:11:03.981Z,102082.09
2023-04-09T05:13:30.446Z,102084.38
2023-04-09T05:15:56.906Z,102083.88
2023-04-09T05:18:23.294Z,102075.31
2023-04-09T05:20:49.691Z,102080.41
2023-04-09T05:23:16.292Z,102082.03
2023-04-09T05:25:42.835Z,102087.09
2023-04-09T05:28:11.156Z,102085.72
2023-04-09T05:30:37.766Z,102095.69
2023-04-09T05:33:04.402Z,102090.59
2023-04-09T05:35:30.860Z,102091.06
2023-04-09T05:37:57.403Z,102090.94
2023-04-09T05:40:23.966Z,102098.53
2023-04-09T05:42:50.398Z,102097.09
2023-04-09T05:45:16.837Z,102097.38
2023-04-09T05:47:43.293Z,102096.50
2023-04-09T05:50:10.140Z,102102.41
2023-04-09T05:52:36.652Z,102100.91
2023-04-09T05:55:03.412Z,102094.88
2023-04-09T05:57:31.048Z,102096.81
2023-04-09T05:59:57.560Z,102092.69
2023-04-09T06:02:25.135Z,102098.34
2023-04-09T06:04:51.812Z,102097.31
2023-04-09T06:07:18.430Z,102099.53
2023-04-09T06:09:46.704Z,102098.41
2023-04-09T06:12:13.499Z,102091.19
2023-04-09T06:14:39.936Z,102092.34
2023-04-09T06:17:06.377Z,102092.50
2023-04-09T06:19:32.887Z,102094.94
2023-04-09T06:21:59.324Z,102096.28
2023-04-09T06:24:25.993Z,102100.22
2023-04-09T06:26:52.415Z,102108.66
2023-04-09T06:29:18.880Z,102106.69
2023-04-09T06:31:45.273Z,102104.56
2023-04-09T06:34:11.712Z,102101.91
2023-04-09T06:36:40.310Z,102104.22
2023-04-09T06:39:07.398Z,102104.50
2023-04-09T06:41:33.873Z,102116.72
2023-04-09T06:44:00.577Z,102110.47
2023-04-09T06:46:27.509Z,102112.97
2023-04-09T06:48:54.381Z,102112.84
2023-04-09T06:51:20.842Z,102113.44
2023-04-09T06:53:48.181Z,102115.06
2023-04-09T06:56:14.911Z,102107.34
2023-04-09T06:58:41.410Z,102118.38
2023-04-09T07:01:07.899Z,102117.66
2023-04-09T07:03:34.726Z,102111.16
2023-04-09T07:06:01.320Z,102112.03
2023-04-09T07:08:28.584Z,102115.47
2023-04-09T07:10:55.016Z,102120.69
2023-04-09T07:13:21.593Z,102118.44
2023-04-09T07:15:48.170Z,102116.44
2023-04-09T07:18:14.626Z,102119.78
2023-04-09T07:20:41.042Z,102123.47
2023-04-09T07:23:07.474Z,102126.91
2023-04-09T07:25:34.084Z,102126.84
2023-04-09T07:28:00.561Z,102120.63
2023-04-09T07:30:27.389Z,102125.81
2023-04-09T07:32:54.093Z,102127.47
2023-04-09T07:35:20.798Z,102127.13
2023-04-09T07:37:47.321Z,102120.63
2023-04-09T07:40:13.853Z,102130.16
2023-04-09T07:42:40.669Z,102139.53
2023-04-09T07:45:07.564Z,102134.72
2023-04-09T07:47:34.006Z,102143.84
2023-04-09T07:50:00.660Z,102142.78
2023-04-09T07:52:27.087Z,102143.22
2023-04-09T07:54:53.546Z,102138.94
2023-04-09T07:57:20.020Z,102137.38
2023-04-09T07:59:46.666Z,102144.72
2023-04-09T08:02:15.372Z,102148.41
2023-04-09T08:04:42.513Z,102148.28
2023-04-09T08:07:09.250Z,102149.91
2023-04-09T08:09:35.781Z,102152.41
2023-04-09T08:12:02.466Z,102156.03
2023-04-09T08:14:28.931Z,102165.31
2023-04-09T08:16:55.565Z,102165.00
2023-04-09T08:19:22.113Z,102159.78
2023-04-09T08:21:49.500Z,102167.19
2023-04-09T08:24:16.344Z,102170.34
2023-04-09T08:26:43.373Z,102166.00
2023-04-09T08:29:11.394Z,102166.72
2023-04-09T08:31:38.069Z,102176.84
2023-04-09T08:34:05.006Z,102169.63
2023-04-09T08:36:32.473Z,102177.50
2023-04-09T08:39:00.448Z,102173.00
2023-04-09T08:41:29.253Z,102175.09
2023-04-09T08:43:58.929Z,102176.31
2023-04-09T08:46:26.507Z,102177.38
2023-04-09T08:48:53.616Z,102179.00
2023-04-09T08:51:22.162Z,102177.38
2023-04-09T08:53:53.371Z,102175.91
2023-04-09T08:56:21.828Z,102173.59
2023-04-09T08:58:48.571Z,102178.03
2023-04-09T09:01:32.089Z,102175.00
2023-04-09T09:04:07.218Z,102175.31
2023-04-09T09:06:38.638Z,102177.06
2023-04-09T09:09:05.516Z,102180.00
2023-04-09T09:11:33.449Z,102180.81
2023-04-09T09:14:01.600Z,102178.69
2023-04-09T09:16:28.546Z,102184.22
2023-04-09T09:18:58.633Z,102181.59
2023-04-09T09:21:26.318Z,102178.28
2023-04-09T09:23:52.902Z,102184.44
2023-04-09T09:26:24.519Z,102183.94
2023-04-09T09:28:51.489Z,102184.69
2023-04-09T09:31:20.007Z,102186.81
2023-04-09T09:33:48.239Z,102183.56
2023-04-09T09:36:34.941Z,102187.34
2023-04-09T09:39:05.134Z,102189.66
2023-04-09T09:41:31.706Z,102193.69
2023-04-09T09:43:58.341Z,102198.16
2023-04-09T09:46:26.212Z,102198.38
2023-04-09T09:48:53.357Z,102194.41
2023-04-09T09:51:25.814Z,102196.44
2023-04-09T09:53:55.768Z,102191.84
2023-04-09T09:56:25.087Z,102198.31
2023-04-09T09:59:03.869Z,102197.13
2023-04-09T10:01:30.756Z,102194.56
2023-04-09T10:04:00.464Z,102191.53
2023-04-09T10:06:30.128Z,102191.91
2023-04-09T10:09:03.688Z,102193.47
2023-04-09T10:11:33.582Z,102197.44
2023-04-09T10:14:00.684Z,102194.03
2023-04-09T10:16:28.089Z,102189.19
2023-04-09T10:18:58.709Z,102189.63
2023-04-09T10:21:36.644Z,102192.59
2023-04-09T10:24:06.552Z,102189.38
2023-04-09T10:26:34.269Z,102192.94
2023-04-09T10:29:14.496Z,102185.91
2023-04-09T10:31:47.815Z,102182.69
2023-04-09T10:34:19.438Z,102191.06
2023-04-09T10:36:53.430Z,102180.69
2023-04-09T10:39:20.067Z,102187.84
2023-04-09T10:41:48.723Z,102182.53
2023-04-09T10:44:27.024Z,102187.25
2023-04-09T10:46:56.704Z,102182.22
2023-04-09T10:49:28.085Z,102187.00
2023-04-09T10:52:03.011Z,102185.16
2023-04-09T10:54:38.758Z,102188.56
2023-04-09T10:57:08.045Z,102184.09
2023-04-09T10:59:36.114Z,102184.41
2023-04-09T11:02:03.172Z,102186.88
2023-04-09T11:04:41.581Z,102187.97
2023-04-09T11:07:09.364Z,102186.06
2023-04-09T11:09:36.442Z,102183.78
2023-04-09T11:12:03.670Z,102185.47
2023-04-09T11:14:30.089Z,102182.28
2023-04-09T11:16:56.551Z,102190.59
2023-04-09T11:19:23.329Z,102185.41
2023-04-09T11:21:50.271Z,102175.97
2023-04-09T11:24:18.838Z,102184.28
2023-04-09T11:26:45.864Z,102188.19
2023-04-09T11:29:12.902Z,102184.75
2023-04-09T11:31:39.351Z,102180.53
2023-04-09T11:34:05.791Z,102183.69
2023-04-09T11:36:34.617Z,102178.66
2023-04-09T11:39:02.429Z,102179.84
2023-04-09T11:41:36.562Z,102181.81
2023-04-09T11:44:07.966Z,102181.25
2023-04-09T11:46:35.669Z,102191.72
2023-04-09T11:49:03.426Z,102181.91
2023-04-09T11:51:35.298Z,102187.28
2023-04-09T11:54:05.565Z,102190.63
2023-04-09T11:56:32.996Z,102188.59
2023-04-09T11:58:59.541Z,102188.22
2023-04-09T12:01:32.425Z,102185.69
2023-04-09T12:04:00.579Z,102191.72
2023-04-09T12:06:28.484Z,102193.88
2023-04-09T12:08:58.998Z,102186.47
2023-04-09T12:11:32.372Z,102200.06
2023-04-09T12:14:02.993Z,102199.72
2023-04-09T12:16:34.298Z,102190.50
2023-04-09T12:19:08.027Z,102186.94
2023-04-09T12:21:49.573Z,102192.63
2023-04-09T12:24:17.461Z,102193.00
2023-04-09T12:26:45.419Z,102200.66
2023-04-09T12:29:13.236Z,102191.78
2023-04-09T12:31:39.799Z,102201.06
2023-04-09T12:34:06.719Z,102197.50
2023-04-09T12:36:33.111Z,102189.56
2023-04-09T12:38:59.639Z,102198.31
2023-04-09T12:41:26.158Z,102188.81
2023-04-09T12:43:52.931Z,102190.78
2023-04-09T12:46:19.749Z,102194.69
2023-04-09T12:48:47.311Z,102201.53
2023-04-09T12:51:14.287Z,102198.44
2023-04-09T12:53:40.892Z,102196.47
2023-04-09T12:56:07.896Z,102193.00
2023-04-09T12:58:35.506Z,102197.75
2023-04-09T13:01:04.105Z,102186.13
2023-04-09T13:03:30.793Z,102191.72
2023-04-09T13:05:57.649Z,102187.38
2023-04-09T13:08:24.120Z,102184.81
2023-04-09T13:10:50.671Z,102186.75
2023-04-09T13:13:17.115Z,102184.53
2023-04-09T13:15:43.637Z,102187.16
2023-04-09T13:18:10.469Z,102189.97
2023-04-09T13:20:37.301Z,102180.31
2023-04-09T13:23:03.833Z,102181.06
2023-04-09T13:25:30.406Z,102172.94
2023-04-09T13:27:56.804Z,102176.00
2023-04-09T13:30:23.529Z,102168.72
2023-04-09T13:32:49.959Z,102167.47
2023-04-09T13:35:16.446Z,102162.97
2023-04-09T13:37:42.958Z,102155.44
2023-04-09T13:40:09.641Z,102152.63
2023-04-09T13:42:37.511Z,102152.75
2023-04-09T13:45:04.880Z,102151.16
2023-04-09T13:47:31.646Z,102151.81
2023-04-09T13:49:58.119Z,102144.88
2023-04-09T13:52:26.831Z,102141.00
2023-04-09T13:54:56.183Z,102148.41
2023-04-09T13:57:22.642Z,102141.44
2023-04-09T13:59:49.656Z,102142.63
2023-04-09T14:02:17.969Z,102139.13
2023-04-09T14:04:44.651Z,102133.81
2023-04-09T14:07:11.131Z,102131.09
2023-04-09T14:09:37.523Z,102128.84
2023-04-09T14:12:03.980Z,102131.59
2023-04-09T14:14:30.408Z,102134.84
2023-04-09T14:16:56.830Z,102132.44
2023-04-09T14:19:23.271Z,102120.00
2023-04-09T14:21:49.846Z,102122.28
2023-04-09T14:24:16.391Z,102117.59
2023-04-09T14:26:42.857Z,102117.47
2023-04-09T14:29:09.324Z,102116.50
2023-04-09T14:31:35.923Z,102118.22
2023-04-09T14:34:02.356Z,102119.56
2023-04-09T14:36:28.836Z,102116.56
2023-04-09T14:38:57.841Z,102120.03
2023-04-09T14:41:24.673Z,102118.81
2023-04-09T14:43:51.118Z,102110.69
2023-04-09T14:46:17.564Z,102116.28
2023-04-09T14:48:44.059Z,102113.09
2023-04-09T14:51:10.814Z,102108.38
2023-04-09T14:53:37.882Z,102102.84
2023-04-09T14:56:04.703Z,102101.25
2023-04-09T14:58:31.426Z,102104.38
2023-04-09T15:00:57.918Z,102098.09
2023-04-09T15:03:24.578Z,102102.97
2023-04-09T15:05:51.527Z,102095.88
2023-04-09T15:08:17.970Z,102106.16
2023-04-09T15:10:44.396Z,102107.00
2023-04-09T15:13:10.858Z,102111.06
2023-04-09T15:15:40.628Z,102106.03
2023-04-09T15:18:07.014Z,102102.19
2023-04-09T15:20:37.682Z,102106.63
2023-04-09T15:23:04.182Z,102113.06
2023-04-09T15:25:30.737Z,102114.69
2023-04-09T15:27:57.408Z,102103.69
2023-04-09T15:30:23.953Z,102107.09
2023-04-09T15:32:50.426Z,102107.94
2023-04-09T15:35:23.876Z,102102.09
2023-04-09T15:37:51.199Z,102097.56
2023-04-09T15:40:18.602Z,102100.47
2023-04-09T15:42:45.242Z,102097.28
2023-04-09T15:45:14.622Z,102105.34
2023-04-09T15:47:41.141Z,102099.00
2023-04-09T15:50:09.328Z,102092.97
2023-04-09T15:52:36.373Z,102115.50
2023-04-09T15:55:02.959Z,102107.28
2023-04-09T15:57:29.476Z,102099.22
2023-04-09T15:59:55.922Z,102100.16
2023-04-09T16:02:24.717Z,102092.25
2023-04-09T16:04:52.419Z,102102.44
2023-04-09T16:07:18.901Z,102096.31
2023-04-09T16:09:46.164Z,102098.56
2023-04-09T16:12:12.806Z,102100.34
2023-04-09T16:14:40.290Z,102104.69
2023-04-09T16:17:07.010Z,102096.94
2023-04-09T16:19:33.572Z,102107.03
2023-04-09T16:21:59.986Z,102092.66
2023-04-09T16:24:27.056Z,102108.19
2023-04-09T16:26:53.576Z,102100.44
2023-04-09T16:29:20.220Z,102112.44
2023-04-09T16:31:46.731Z,102106.44
2023-04-09T16:34:13.304Z,102099.19
2023-04-09T16:36:41.457Z,102098.53
2023-04-09T16:39:07.919Z,102095.66
2023-04-09T16:41:36.502Z,102099.34
2023-04-09T16:44:03.951Z,102096.75
2023-04-09T16:46:30.745Z,102099.81
2023-04-09T16:48:57.549Z,102088.97
2023-04-09T16:51:23.976Z,102087.50
2023-04-09T16:53:50.460Z,102082.81
2023-04-09T16:56:16.992Z,102088.00
2023-04-09T16:58:43.461Z,102079.41
2023-04-09T17:01:10.494Z,102082.16
2023-04-09T17:03:37.070Z,102079.41
2023-04-09T17:06:04.660Z,102084.56
2023-04-09T17:08:31.130Z,102077.63
2023-04-09T17:11:02.236Z,102085.47
2023-04-09T17:13:34.952Z,102072.78
2023-04-09T17:16:02.787Z,102078.44
2023-04-09T17:18:29.874Z,102075.53
2023-04-09T17:20:56.436Z,102077.81
2023-04-09T17:23:22.965Z,102081.81
2023-04-09T17:25:49.548Z,102073.44
2023-04-09T17:28:18.708Z,102074.22
2023-04-09T17:30:45.524Z,102081.66
2023-04-09T17:33:12.388Z,102074.31
2023-04-09T17:35:38.952Z,102068.03
2023-04-09T17:38:05.509Z,102076.94
2023-04-09T17:40:31.958Z,102075.81
2023-04-09T17:42:58.345Z,102079.34
2023-04-09T17:45:24.866Z,102067.06
2023-04-09T17:47:51.355Z,102064.75
2023-04-09T17:50:18.094Z,102074.06
2023-04-09T17:52:44.560Z,102071.00
2023-04-09T17:55:12.338Z,102077.09
2023-04-09T17:57:40.071Z,102072.41
2023-04-09T18:00:08.210Z,102075.16
2023-04-09T18:02:35.335Z,102060.97
2023-04-09T18:05:04.743Z,102068.84
2023-04-09T18:07:33.915Z,102068.19
2023-04-09T18:10:01.633Z,102067.50
2023-04-09T18:12:28.187Z,102060.22
2023-04-09T18:14:54.765Z,102057.81
2023-04-09T18:17:21.681Z,102057.63
2023-04-09T18:19:49.031Z,102062.03
2023-04-09T18:22:15.538Z,102064.84
2023-04-09T18:24:42.007Z,102062.59
2023-04-09T18:27:08.424Z,102071.97
2023-04-09T18:29:34.944Z,102072.63
2023-04-09T18:32:01.422Z,102074.38
2023-04-09T18:34:27.831Z,102071.47
2023-04-09T18:36:54.725Z,102069.50
2023-04-09T18:39:22.688Z,102076.28
2023-04-09T18:41:49.167Z,102072.44
2023-04-09T18:44:16.424Z,102073.75
2023-04-09T18:46:43.005Z,102082.28
2023-04-09T18:49:09.878Z,102076.84
2023-04-09T18:51:36.669Z,102081.56
2023-04-09T18:54:03.409Z,102083.47
2023-04-09T18:56:29.907Z,102086.44
2023-04-09T18:58:56.753Z,102099.78
2023-04-09T19:01:23.360Z,102093.78
2023-04-09T19:03:50.002Z,102094.81
2023-04-09T19:06:18.930Z,102092.41
2023-04-09T19:08:50.132Z,102087.44
2023-04-09T19:11:16.806Z,102094.22
2023-04-09T19:13:43.273Z,102083.91
2023-04-09T19:16:10.165Z,102089.28
2023-04-09T19:18:37.310Z,102086.88
2023-04-09T19:21:04.909Z,102089.28
2023-04-09T19:23:33.900Z,102087.53
2023-04-09T19:26:00.785Z,102101.50
2023-04-09T19:28:27.594Z,102093.16
2023-04-09T19:30:54.083Z,102095.00
2023-04-09T19:33:24.920Z,102092.22
2023-04-09T19:35:52.892Z,102097.47
2023-04-09T19:38:20.485Z,102098.63
2023-04-09T19:40:47.471Z,102094.59
2023-04-09T19:43:14.097Z,102094.88
2023-04-09T19:45:42.398Z,102091.28
2023-04-09T19:48:09.818Z,102091.41
2023-04-09T19:50:41.246Z,102099.97
2023-04-09T19:53:07.784Z,102091.66
2023-04-09T19:55:35.156Z,102097.19
2023-04-09T19:58:02.943Z,102104.69
2023-04-09T20:00:29.422Z,102093.19
2023-04-09T20:02:57.222Z,102100.94
2023-04-09T20:05:23.997Z,102084.66
2023-04-09T20:07:51.696Z,102089.44
2023-04-09T20:10:18.402Z,102088.88
2023-04-09T20:12:51.930Z,102091.69
2023-04-09T20:15:21.764Z,102091.59
2023-04-09T20:17:51.219Z,102090.94
2023-04-09T20:20:19.787Z,102092.94
2023-04-09T20:22:55.593Z,102091.19
2023-04-09T20:25:24.280Z,102085.31
2023-04-09T20:27:54.426Z,102082.78
2023-04-09T20:30:21.270Z,102093.50
2023-04-09T20:32:49.099Z,102084.56
2023-04-09T20:35:15.903Z,102086.53
2023-04-09T20:37:42.431Z,102089.78
2023-04-09T20:40:09.256Z,102085.00
2023-04-09T20:42:35.962Z,102084.16
2023-04-09T20:45:02.934Z,102087.78
2023-04-09T20:47:30.490Z,102086.13
2023-04-09T20:50:01.085Z,102072.78
2023-04-09T20:52:30.744Z,102078.56
2023-04-09T20:54:57.538Z,102068.59
2023-04-09T20:57:24.037Z,102064.31
2023-04-09T20:59:50.765Z,102072.53
2023-04-09T21:02:17.683Z,102069.22
2023-04-09T21:04:44.304Z,102067.56
2023-04-09T21:07:11.029Z,102065.78
2023-04-09T21:09:38.303Z,102059.75
2023-04-09T21:12:04.789Z,102062.41
2023-04-09T21:14:34.049Z,102065.84
2023-04-09T21:17:00.628Z,102066.50
2023-04-09T21:19:27.064Z,102067.03
2023-04-09T21:21:54.319Z,102068.69
2023-04-09T21:24:20.771Z,102064.81
2023-04-09T21:26:51.647Z,102060.59
2023-04-09T21:29:19.638Z,102058.63
2023-04-09T21:31:47.637Z,102060.75
2023-04-09T21:34:14.121Z,102060.53
2023-04-09T21:36:40.724Z,102063.34
2023-04-09T21:39:07.694Z,102059.25
2023-04-09T21:41:34.164Z,102062.91
2023-04-09T21:44:07.875Z,102061.31
2023-04-09T21:46:36.751Z,102050.91
2023-04-09T21:49:04.140Z,102055.31
2023-04-09T21:51:31.399Z,102051.44
2023-04-09T21:54:04.939Z,102050.91
2023-04-09T21:56:32.615Z,102046.19
2023-04-09T21:59:00.706Z,102051.09
2023-04-09T22:01:29.691Z,102052.13
2023-04-09T22:04:00.432Z,102056.78
2023-04-09T22:06:28.520Z,102044.72
2023-04-09T22:08:57.355Z,102046.72
2023-04-09T22:11:27.220Z,102048.75
2023-04-09T22:13:55.018Z,102052.41
2023-04-09T22:16:23.536Z,102056.22
2023-04-09T22:18:50.196Z,102053.50
2023-04-09T22:21:17.450Z,102061.13
2023-04-09T22:23:44.228Z,102053.13
2023-04-09T22:26:10.823Z,102046.63
2023-04-09T22:28:38.314Z,102060.59
2023-04-09T22:31:05.165Z,102068.09
2023-04-09T22:33:31.759Z,102063.25
2023-04-09T22:35:59.297Z,102062.84
2023-04-09T22:38:26.052Z,102057.63
2023-04-09T22:40:52.639Z,102059.94
2023-04-09T22:43:19.565Z,102062.09
2023-04-09T22:45:54.250Z,102056.84
2023-04-09T22:48:21.951Z,102054.56
2023-04-09T22:50:49.554Z,102063.69
2023-04-09T22:53:19.629Z,102068.47
2023-04-09T22:55:54.353Z,102065.19
2023-04-09T22:58:21.081Z,102067.06
2023-04-09T23:00:48.145Z,102065.22
2023-04-09T23:03:14.904Z,102054.81
2023-04-09T23:05:41.858Z,102062.72
2023-04-09T23:08:08.883Z,102060.88
2023-04-09T23:10:36.055Z,102068.13
2023-04-09T23:13:02.629Z,102073.50
2023-04-09T23:15:29.114Z,102068.97
2023-04-09T23:17:55.943Z,102063.75
2023-04-09T23:20:23.002Z,102063.13
2023-04-09T23:22:49.993Z,102065.84
2023-04-09T23:25:16.736Z,102059.66
2023-04-09T23:27:43.677Z,102062.38
2023-04-09T23:30:10.667Z,102058.53
2023-04-09T23:32:37.228Z,102052.06
2023-04-09T23:35:04.183Z,102046.94
2023-04-09T23:37:31.166Z,102046.69
2023-04-09T23:39:57.625Z,102046.75
2023-04-09T23:42:24.149Z,102047.78
2023-04-09T23:44:50.606Z,102041.31
2023-04-09T23:47:17.350Z,102041.81
2023-04-09T23:49:44.532Z,102048.88
2023-04-09T23:52:10.930Z,102038.28
2023-04-09T23:54:37.302Z,102035.19
2023-04-09T23:57:03.737Z,102042.34
2023-04-09T23:59:33.741Z,102036.72
